sensor_id;sensor_type;location;lat;lon;timestamp;pressure;altitude;pressure_sealevel;temperature
24740;BMP280;45234;48.148;17.128;2023-09-07T00:01:37;100703.53;;;18.62
24740;BMP280;45234;48.148;17.128;2023-09-07T00:04:04;100707.66;;;18.58
24740;BMP280;45234;48.148;17.128;2023-09-07T00:06:33;100703.09;;;18.54
24740;BMP280;45234;48.148;17.128;2023-09-07T00:09:02;100702.78;;;18.50
24740;BMP280;45234;48.148;17.128;2023-09-07T00:11:33;100701.06;;;18.44
24740;BMP280;45234;48.148;17.128;2023-09-07T00:14:00;100693.97;;;18.44
24740;BMP280;45234;48.148;17.128;2023-09-07T00:16:27;100692.38;;;18.43
24740;BMP280;45234;48.148;17.128;2023-09-07T00:18:54;100697.09;;;18.41
24740;BMP280;45234;48.148;17.128;2023-09-07T00:21:21;100683.47;;;18.33
24740;BMP280;45234;48.148;17.128;2023-09-07T00:23:48;100685.09;;;18.34
24740;BMP280;45234;48.148;17.128;2023-09-07T00:26:15;100688.50;;;18.34
24740;BMP280;45234;48.148;17.128;2023-09-07T00:28:43;100683.06;;;18.36
24740;BMP280;45234;48.148;17.128;2023-09-07T00:31:10;100680.97;;;18.38
24740;BMP280;45234;48.148;17.128;2023-09-07T00:33:37;100683.38;;;18.39
24740;BMP280;45234;48.148;17.128;2023-09-07T00:36:04;100682.00;;;18.37
24740;BMP280;45234;48.148;17.128;2023-09-07T00:38:31;100679.97;;;18.39
24740;BMP280;45234;48.148;17.128;2023-09-07T00:40:59;100675.28;;;18.41
24740;BMP280;45234;48.148;17.128;2023-09-07T00:43:26;100680.84;;;18.44
24740;BMP280;45234;48.148;17.128;2023-09-07T00:45:53;100675.16;;;18.47
24740;BMP280;45234;48.148;17.128;2023-09-07T00:48:21;100679.69;;;18.52
24740;BMP280;45234;48.148;17.128;2023-09-07T00:50:48;100674.75;;;18.56
24740;BMP280;45234;48.148;17.128;2023-09-07T00:53:15;100680.94;;;18.61
24740;BMP280;45234;48.148;17.128;2023-09-07T00:55:45;100670.78;;;18.65
24740;BMP280;45234;48.148;17.128;2023-09-07T00:58:12;100669.03;;;18.70
24740;BMP280;45234;48.148;17.128;2023-09-07T01:00:40;100659.63;;;18.74
24740;BMP280;45234;48.148;17.128;2023-09-07T01:03:07;100664.56;;;18.82
24740;BMP280;45234;48.148;17.128;2023-09-07T01:05:51;100654.03;;;18.82
24740;BMP280;45234;48.148;17.128;2023-09-07T01:08:23;100657.31;;;18.90
24740;BMP280;45234;48.148;17.128;2023-09-07T01:10:51;100660.34;;;18.98
24740;BMP280;45234;48.148;17.128;2023-09-07T01:13:19;100651.22;;;19.01
24740;BMP280;45234;48.148;17.128;2023-09-07T01:15:47;100654.97;;;19.05
24740;BMP280;45234;48.148;17.128;2023-09-07T01:18:15;100666.59;;;19.09
24740;BMP280;45234;48.148;17.128;2023-09-07T01:20:52;100665.31;;;19.11
24740;BMP280;45234;48.148;17.128;2023-09-07T01:23:19;100672.75;;;19.14
24740;BMP280;45234;48.148;17.128;2023-09-07T01:25:46;100675.38;;;19.14
24740;BMP280;45234;48.148;17.128;2023-09-07T01:28:14;100674.59;;;19.14
24740;BMP280;45234;48.148;17.128;2023-09-07T01:30:42;100672.41;;;19.11
24740;BMP280;45234;48.148;17.128;2023-09-07T01:33:09;100676.31;;;19.08
24740;BMP280;45234;48.148;17.128;2023-09-07T01:35:36;100680.69;;;19.03
24740;BMP280;45234;48.148;17.128;2023-09-07T01:38:06;100683.00;;;18.99
24740;BMP280;45234;48.148;17.128;2023-09-07T01:40:33;100684.25;;;18.97
24740;BMP280;45234;48.148;17.128;2023-09-07T01:43:00;100685.19;;;18.91
24740;BMP280;45234;48.148;17.128;2023-09-07T01:45:27;100688.72;;;18.84
24740;BMP280;45234;48.148;17.128;2023-09-07T01:47:54;100691.84;;;18.81
24740;BMP280;45234;48.148;17.128;2023-09-07T01:50:21;100688.31;;;18.76
24740;BMP280;45234;48.148;17.128;2023-09-07T01:52:48;100688.00;;;18.72
24740;BMP280;45234;48.148;17.128;2023-09-07T01:55:15;100695.19;;;18.65
24740;BMP280;45234;48.148;17.128;2023-09-07T01:57:44;100697.63;;;18.55
24740;BMP280;45234;48.148;17.128;2023-09-07T02:00:11;100686.44;;;18.48
24740;BMP280;45234;48.148;17.128;2023-09-07T02:02:40;100699.44;;;18.43
24740;BMP280;45234;48.148;17.128;2023-09-07T02:05:07;100692.72;;;18.35
24740;BMP280;45234;48.148;17.128;2023-09-07T02:07:35;100695.56;;;18.34
24740;BMP280;45234;48.148;17.128;2023-09-07T02:10:02;100704.47;;;18.33
24740;BMP280;45234;48.148;17.128;2023-09-07T02:12:32;100709.19;;;18.31
24740;BMP280;45234;48.148;17.128;2023-09-07T02:15:03;100705.44;;;18.27
24740;BMP280;45234;48.148;17.128;2023-09-07T02:17:32;100710.06;;;18.25
24740;BMP280;45234;48.148;17.128;2023-09-07T02:20:01;100710.78;;;18.20
24740;BMP280;45234;48.148;17.128;2023-09-07T02:22:30;100708.38;;;18.19
24740;BMP280;45234;48.148;17.128;2023-09-07T02:24:57;100706.81;;;18.18
24740;BMP280;45234;48.148;17.128;2023-09-07T02:27:24;100702.59;;;18.17
24740;BMP280;45234;48.148;17.128;2023-09-07T02:29:51;100708.25;;;18.13
24740;BMP280;45234;48.148;17.128;2023-09-07T02:32:18;100703.94;;;18.19
24740;BMP280;45234;48.148;17.128;2023-09-07T02:34:48;100704.19;;;18.18
24740;BMP280;45234;48.148;17.128;2023-09-07T02:37:15;100711.56;;;18.21
24740;BMP280;45234;48.148;17.128;2023-09-07T02:39:43;100711.00;;;18.19
24740;BMP280;45234;48.148;17.128;2023-09-07T02:42:10;100707.94;;;18.22
24740;BMP280;45234;48.148;17.128;2023-09-07T02:44:37;100711.56;;;18.21
24740;BMP280;45234;48.148;17.128;2023-09-07T02:47:05;100710.56;;;18.22
24740;BMP280;45234;48.148;17.128;2023-09-07T02:49:33;100711.56;;;18.21
24740;BMP280;45234;48.148;17.128;2023-09-07T02:52:03;100709.19;;;18.19
24740;BMP280;45234;48.148;17.128;2023-09-07T02:54:30;100716.81;;;18.21
24740;BMP280;45234;48.148;17.128;2023-09-07T02:56:57;100708.72;;;18.22
24740;BMP280;45234;48.148;17.128;2023-09-07T02:59:24;100717.94;;;18.25
24740;BMP280;45234;48.148;17.128;2023-09-07T03:01:51;100710.44;;;18.28
24740;BMP280;45234;48.148;17.128;2023-09-07T03:04:18;100709.72;;;18.33
24740;BMP280;45234;48.148;17.128;2023-09-07T03:06:45;100709.72;;;18.33
24740;BMP280;45234;48.148;17.128;2023-09-07T03:09:12;100708.25;;;18.37
24740;BMP280;45234;48.148;17.128;2023-09-07T03:11:38;100711.22;;;18.40
24740;BMP280;45234;48.148;17.128;2023-09-07T03:14:06;100710.75;;;18.43
24740;BMP280;45234;48.148;17.128;2023-09-07T03:16:33;100703.44;;;18.45
24740;BMP280;45234;48.148;17.128;2023-09-07T03:19:01;100708.25;;;18.48
24740;BMP280;45234;48.148;17.128;2023-09-07T03:21:28;100704.81;;;18.48
24740;BMP280;45234;48.148;17.128;2023-09-07T03:23:57;100700.94;;;18.51
24740;BMP280;45234;48.148;17.128;2023-09-07T03:26:25;100704.94;;;18.53
24740;BMP280;45234;48.148;17.128;2023-09-07T03:28:52;100700.47;;;18.54
24740;BMP280;45234;48.148;17.128;2023-09-07T03:31:19;100698.19;;;18.57
24740;BMP280;45234;48.148;17.128;2023-09-07T03:33:46;100701.13;;;18.61
24740;BMP280;45234;48.148;17.128;2023-09-07T03:36:13;100702.41;;;18.58
24740;BMP280;45234;48.148;17.128;2023-09-07T03:38:42;100702.41;;;18.58
24740;BMP280;45234;48.148;17.128;2023-09-07T03:41:11;100705.84;;;18.59
24740;BMP280;45234;48.148;17.128;2023-09-07T03:43:38;100707.66;;;18.58
24740;BMP280;45234;48.148;17.128;2023-09-07T03:46:07;100702.41;;;18.58
24740;BMP280;45234;48.148;17.128;2023-09-07T03:48:35;100699.19;;;18.56
24740;BMP280;45234;48.148;17.128;2023-09-07T03:51:07;100710.97;;;18.54
24740;BMP280;45234;48.148;17.128;2023-09-07T03:53:34;100699.66;;;18.53
24740;BMP280;45234;48.148;17.128;2023-09-07T03:56:02;100705.16;;;18.52
24740;BMP280;45234;48.148;17.128;2023-09-07T03:58:31;100712.00;;;18.53
24740;BMP280;45234;48.148;17.128;2023-09-07T04:01:02;100710.66;;;18.50
24740;BMP280;45234;48.148;17.128;2023-09-07T04:03:29;100712.31;;;18.56
24740;BMP280;45234;48.148;17.128;2023-09-07T04:05:56;100712.78;;;18.53
24740;BMP280;45234;48.148;17.128;2023-09-07T04:08:23;100714.16;;;18.56
24740;BMP280;45234;48.148;17.128;2023-09-07T04:10:50;100716.56;;;18.57
24740;BMP280;45234;48.148;17.128;2023-09-07T04:13:17;100718.19;;;18.58
24740;BMP280;45234;48.148;17.128;2023-09-07T04:15:45;100716.56;;;18.57
24740;BMP280;45234;48.148;17.128;2023-09-07T04:18:15;100718.19;;;18.58
24740;BMP280;45234;48.148;17.128;2023-09-07T04:20:44;100721.59;;;18.59
24740;BMP280;45234;48.148;17.128;2023-09-07T04:23:12;100717.56;;;18.56
24740;BMP280;45234;48.148;17.128;2023-09-07T04:25:40;100724.44;;;18.57
24740;BMP280;45234;48.148;17.128;2023-09-07T04:28:08;100721.81;;;18.57
24740;BMP280;45234;48.148;17.128;2023-09-07T04:30:44;100728.56;;;18.53
24740;BMP280;45234;48.148;17.128;2023-09-07T04:33:11;100729.00;;;18.62
24740;BMP280;45234;48.148;17.128;2023-09-07T04:35:39;100723.53;;;18.63
24740;BMP280;45234;48.148;17.128;2023-09-07T04:38:07;100733.78;;;18.65
24740;BMP280;45234;48.148;17.128;2023-09-07T04:40:34;100726.69;;;18.65
24740;BMP280;45234;48.148;17.128;2023-09-07T04:43:01;100737.75;;;18.67
24740;BMP280;45234;48.148;17.128;2023-09-07T04:45:28;100728.91;;;18.68
24740;BMP280;45234;48.148;17.128;2023-09-07T04:47:55;100732.06;;;18.70
24740;BMP280;45234;48.148;17.128;2023-09-07T04:50:22;100732.28;;;18.80
24740;BMP280;45234;48.148;17.128;2023-09-07T04:52:49;100736.59;;;18.86
24740;BMP280;45234;48.148;17.128;2023-09-07T04:55:16;100735.34;;;18.89
24740;BMP280;45234;48.148;17.128;2023-09-07T04:57:44;100740.47;;;18.96
24740;BMP280;45234;48.148;17.128;2023-09-07T05:00:11;100741.91;;;19.03
24740;BMP280;45234;48.148;17.128;2023-09-07T05:02:39;100741.91;;;19.03
24740;BMP280;45234;48.148;17.128;2023-09-07T05:05:09;100747.97;;;19.04
24740;BMP280;45234;48.148;17.128;2023-09-07T05:07:36;100753.53;;;19.07
24740;BMP280;45234;48.148;17.128;2023-09-07T05:10:04;100749.44;;;19.11
24740;BMP280;45234;48.148;17.128;2023-09-07T05:12:34;100754.22;;;19.14
24740;BMP280;45234;48.148;17.128;2023-09-07T05:15:01;100758.53;;;19.20
24740;BMP280;45234;48.148;17.128;2023-09-07T05:17:30;100766.28;;;19.27
24740;BMP280;45234;48.148;17.128;2023-09-07T05:19:57;100760.53;;;19.30
24740;BMP280;45234;48.148;17.128;2023-09-07T05:22:24;100758.91;;;19.41
24740;BMP280;45234;48.148;17.128;2023-09-07T05:24:53;100764.13;;;19.52
24740;BMP280;45234;48.148;17.128;2023-09-07T05:27:21;100768.94;;;19.60
24740;BMP280;45234;48.148;17.128;2023-09-07T05:29:48;100753.03;;;19.67
24740;BMP280;45234;48.148;17.128;2023-09-07T05:32:16;100769.13;;;19.71
24740;BMP280;45234;48.148;17.128;2023-09-07T05:34:42;100768.75;;;19.79
24740;BMP280;45234;48.148;17.128;2023-09-07T05:37:10;100765.72;;;19.87
24740;BMP280;45234;48.148;17.128;2023-09-07T05:39:38;100767.38;;;19.93
24740;BMP280;45234;48.148;17.128;2023-09-07T05:42:05;100770.97;;;20.03
24740;BMP280;45234;48.148;17.128;2023-09-07T05:44:32;100770.53;;;20.07
24740;BMP280;45234;48.148;17.128;2023-09-07T05:46:59;100766.75;;;20.19
24740;BMP280;45234;48.148;17.128;2023-09-07T05:49:29;100771.28;;;20.45
24740;BMP280;45234;48.148;17.128;2023-09-07T05:51:56;100768.22;;;20.97
24740;BMP280;45234;48.148;17.128;2023-09-07T05:54:24;100770.56;;;21.79
24740;BMP280;45234;48.148;17.128;2023-09-07T05:56:51;100772.13;;;22.90
24740;BMP280;45234;48.148;17.128;2023-09-07T05:59:18;100783.78;;;24.00
24740;BMP280;45234;48.148;17.128;2023-09-07T06:01:46;100780.16;;;24.89
24740;BMP280;45234;48.148;17.128;2023-09-07T06:04:13;100784.91;;;25.83
24740;BMP280;45234;48.148;17.128;2023-09-07T06:06:40;100787.25;;;26.51
24740;BMP280;45234;48.148;17.128;2023-09-07T06:09:08;100789.44;;;27.00
24740;BMP280;45234;48.148;17.128;2023-09-07T06:11:35;100792.66;;;27.16
24740;BMP280;45234;48.148;17.128;2023-09-07T06:14:03;100783.91;;;27.43
24740;BMP280;45234;48.148;17.128;2023-09-07T06:16:30;100792.38;;;27.17
24740;BMP280;45234;48.148;17.128;2023-09-07T06:18:57;100789.56;;;27.09
24740;BMP280;45234;48.148;17.128;2023-09-07T06:21:24;100789.28;;;27.10
24740;BMP280;45234;48.148;17.128;2023-09-07T06:23:51;100787.63;;;27.14
24740;BMP280;45234;48.148;17.128;2023-09-07T06:26:18;100799.31;;;27.73
24740;BMP280;45234;48.148;17.128;2023-09-07T06:28:46;100795.19;;;27.67
24740;BMP280;45234;48.148;17.128;2023-09-07T06:31:13;100799.63;;;27.58
24740;BMP280;45234;48.148;17.128;2023-09-07T06:33:44;100795.38;;;27.57
24740;BMP280;45234;48.148;17.128;2023-09-07T06:36:11;100803.97;;;27.95
24740;BMP280;45234;48.148;17.128;2023-09-07T06:38:38;100799.31;;;28.00
24740;BMP280;45234;48.148;17.128;2023-09-07T06:41:05;100802.88;;;27.82
24740;BMP280;45234;48.148;17.128;2023-09-07T06:43:35;100807.41;;;27.95
24740;BMP280;45234;48.148;17.128;2023-09-07T06:46:06;100804.81;;;28.18
24740;BMP280;45234;48.148;17.128;2023-09-07T06:48:37;100811.09;;;28.35
24740;BMP280;45234;48.148;17.128;2023-09-07T06:51:05;100804.16;;;28.48
24740;BMP280;45234;48.148;17.128;2023-09-07T06:53:33;100813.16;;;28.61
24740;BMP280;45234;48.148;17.128;2023-09-07T06:56:20;100813.38;;;28.64
24740;BMP280;45234;48.148;17.128;2023-09-07T06:58:47;100819.19;;;28.66
24740;BMP280;45234;48.148;17.128;2023-09-07T07:01:16;100823.94;;;28.69
24740;BMP280;45234;48.148;17.128;2023-09-07T07:03:43;100818.59;;;28.69
24740;BMP280;45234;48.148;17.128;2023-09-07T07:06:11;100825.94;;;28.86
24740;BMP280;45234;48.148;17.128;2023-09-07T07:08:38;100818.78;;;28.95
24740;BMP280;45234;48.148;17.128;2023-09-07T07:11:05;100813.53;;;29.12
24740;BMP280;45234;48.148;17.128;2023-09-07T07:13:33;100817.66;;;29.18
24740;BMP280;45234;48.148;17.128;2023-09-07T07:16:00;100826.69;;;29.31
24740;BMP280;45234;48.148;17.128;2023-09-07T07:18:27;100813.91;;;29.19
24740;BMP280;45234;48.148;17.128;2023-09-07T07:20:56;100815.38;;;29.34
24740;BMP280;45234;48.148;17.128;2023-09-07T07:23:23;100829.66;;;29.60
24740;BMP280;45234;48.148;17.128;2023-09-07T07:25:50;100822.75;;;29.76
24740;BMP280;45234;48.148;17.128;2023-09-07T07:28:19;100821.91;;;30.15
24740;BMP280;45234;48.148;17.128;2023-09-07T07:30:46;100823.81;;;29.58
24740;BMP280;45234;48.148;17.128;2023-09-07T07:33:14;100825.31;;;29.11
24740;BMP280;45234;48.148;17.128;2023-09-07T07:35:42;100829.03;;;29.02
24740;BMP280;45234;48.148;17.128;2023-09-07T07:38:10;100828.84;;;29.29
24740;BMP280;45234;48.148;17.128;2023-09-07T07:40:40;100829.81;;;29.33
24740;BMP280;45234;48.148;17.128;2023-09-07T07:43:09;100835.50;;;29.31
24740;BMP280;45234;48.148;17.128;2023-09-07T07:45:38;100835.31;;;29.67
24740;BMP280;45234;48.148;17.128;2023-09-07T07:48:05;100834.38;;;29.32
24740;BMP280;45234;48.148;17.128;2023-09-07T07:50:40;100830.72;;;28.75
24740;BMP280;45234;48.148;17.128;2023-09-07T07:53:11;100826.56;;;28.83
24740;BMP280;45234;48.148;17.128;2023-09-07T07:55:40;100821.69;;;29.07
24740;BMP280;45234;48.148;17.128;2023-09-07T07:58:11;100822.94;;;29.10
24740;BMP280;45234;48.148;17.128;2023-09-07T08:00:40;100826.81;;;29.04
24740;BMP280;45234;48.148;17.128;2023-09-07T08:03:19;100828.91;;;29.07
24740;BMP280;45234;48.148;17.128;2023-09-07T08:05:46;100830.59;;;29.02
24740;BMP280;45234;48.148;17.128;2023-09-07T08:08:14;100819.66;;;28.90
24740;BMP280;45234;48.148;17.128;2023-09-07T08:10:42;100827.44;;;29.00
24740;BMP280;45234;48.148;17.128;2023-09-07T08:13:09;100821.59;;;29.21
24740;BMP280;45234;48.148;17.128;2023-09-07T08:15:36;100828.69;;;28.94
24740;BMP280;45234;48.148;17.128;2023-09-07T08:18:05;100825.34;;;28.31
24740;BMP280;45234;48.148;17.128;2023-09-07T08:20:33;100824.75;;;28.06
24740;BMP280;45234;48.148;17.128;2023-09-07T08:23:00;100831.47;;;28.31
24740;BMP280;45234;48.148;17.128;2023-09-07T08:25:31;100831.03;;;28.38
24740;BMP280;45234;48.148;17.128;2023-09-07T08:27:58;100829.41;;;28.64
24740;BMP280;45234;48.148;17.128;2023-09-07T08:30:26;100832.69;;;28.83
24740;BMP280;45234;48.148;17.128;2023-09-07T08:32:53;100832.16;;;29.04
24740;BMP280;45234;48.148;17.128;2023-09-07T08:35:22;100826.94;;;29.21
24740;BMP280;45234;48.148;17.128;2023-09-07T08:37:54;100825.84;;;29.22
24740;BMP280;45234;48.148;17.128;2023-09-07T08:40:26;100826.31;;;29.24
24740;BMP280;45234;48.148;17.128;2023-09-07T08:42:54;100834.66;;;29.22
24740;BMP280;45234;48.148;17.128;2023-09-07T08:45:26;100833.50;;;29.15
24740;BMP280;45234;48.148;17.128;2023-09-07T08:47:57;100835.84;;;28.85
24740;BMP280;45234;48.148;17.128;2023-09-07T08:50:25;100832.16;;;28.59
24740;BMP280;45234;48.148;17.128;2023-09-07T08:52:53;100833.19;;;28.63
24740;BMP280;45234;48.148;17.128;2023-09-07T08:55:21;100838.63;;;28.80
24740;BMP280;45234;48.148;17.128;2023-09-07T08:57:48;100839.94;;;28.91
24740;BMP280;45234;48.148;17.128;2023-09-07T09:00:15;100835.09;;;28.71
24740;BMP280;45234;48.148;17.128;2023-09-07T09:02:46;100828.97;;;28.71
24740;BMP280;45234;48.148;17.128;2023-09-07T09:05:23;100826.97;;;28.76
24740;BMP280;45234;48.148;17.128;2023-09-07T09:08:04;100832.31;;;28.76
24740;BMP280;45234;48.148;17.128;2023-09-07T09:10:31;100827.34;;;28.83
24740;BMP280;45234;48.148;17.128;2023-09-07T09:12:58;100834.81;;;28.95
24740;BMP280;45234;48.148;17.128;2023-09-07T09:15:29;100833.56;;;29.01
24740;BMP280;45234;48.148;17.128;2023-09-07T09:17:56;100834.59;;;28.91
24740;BMP280;45234;48.148;17.128;2023-09-07T09:20:24;100833.75;;;28.82
24740;BMP280;45234;48.148;17.128;2023-09-07T09:22:55;100833.19;;;28.63
24740;BMP280;45234;48.148;17.128;2023-09-07T09:25:23;100817.03;;;28.68
24740;BMP280;45234;48.148;17.128;2023-09-07T09:27:50;100827.34;;;28.83
24740;BMP280;45234;48.148;17.128;2023-09-07T09:30:17;100821.84;;;28.66
24740;BMP280;45234;48.148;17.128;2023-09-07T09:32:44;100812.59;;;28.64
24740;BMP280;45234;48.148;17.128;2023-09-07T09:35:11;100812.31;;;28.65
24740;BMP280;45234;48.148;17.128;2023-09-07T09:37:48;100804.41;;;28.60
24740;BMP280;45234;48.148;17.128;2023-09-07T09:40:16;100806.09;;;28.56
24740;BMP280;45234;48.148;17.128;2023-09-07T09:42:45;100803.38;;;28.47
24740;BMP280;45234;48.148;17.128;2023-09-07T09:45:13;100796.25;;;28.43
24740;BMP280;45234;48.148;17.128;2023-09-07T09:47:42;100798.56;;;28.36
24740;BMP280;45234;48.148;17.128;2023-09-07T09:50:11;100796.25;;;28.43
24740;BMP280;45234;48.148;17.128;2023-09-07T09:52:38;100801.84;;;28.33
24740;BMP280;45234;48.148;17.128;2023-09-07T09:55:07;100797.81;;;28.22
24740;BMP280;45234;48.148;17.128;2023-09-07T09:57:40;100801.19;;;28.00
24740;BMP280;45234;48.148;17.128;2023-09-07T10:00:08;100794.28;;;27.85
24740;BMP280;45234;48.148;17.128;2023-09-07T10:03:05;100794.41;;;27.67
24740;BMP280;45234;48.148;17.128;2023-09-07T10:05:34;100789.47;;;27.60
24740;BMP280;45234;48.148;17.128;2023-09-07T10:08:11;100797.16;;;27.48
24740;BMP280;45234;48.148;17.128;2023-09-07T10:10:40;100789.84;;;27.53
24740;BMP280;45234;48.148;17.128;2023-09-07T10:13:07;100793.78;;;27.56
24740;BMP280;45234;48.148;17.128;2023-09-07T10:15:34;100795.56;;;27.47
24740;BMP280;45234;48.148;17.128;2023-09-07T10:18:12;100787.47;;;27.38
24740;BMP280;45234;48.148;17.128;2023-09-07T10:20:55;100785.69;;;27.34
24740;BMP280;45234;48.148;17.128;2023-09-07T10:23:34;100784.59;;;27.35
24740;BMP280;45234;48.148;17.128;2023-09-07T10:26:03;100786.66;;;27.38
24740;BMP280;45234;48.148;17.128;2023-09-07T10:28:34;100781.34;;;27.38
24740;BMP280;45234;48.148;17.128;2023-09-07T10:31:15;100778.09;;;27.41
24740;BMP280;45234;48.148;17.128;2023-09-07T10:33:42;100777.22;;;27.45
24740;BMP280;45234;48.148;17.128;2023-09-07T10:36:26;100774.63;;;27.27
24740;BMP280;45234;48.148;17.128;2023-09-07T10:38:55;100774.63;;;27.27
24740;BMP280;45234;48.148;17.128;2023-09-07T10:41:23;100772.47;;;27.15
24740;BMP280;45234;48.148;17.128;2023-09-07T10:43:54;100776.13;;;27.00
24740;BMP280;45234;48.148;17.128;2023-09-07T10:46:22;100765.16;;;26.88
24740;BMP280;45234;48.148;17.128;2023-09-07T10:48:51;100760.13;;;26.87
24740;BMP280;45234;48.148;17.128;2023-09-07T10:51:21;100758.75;;;26.89
24740;BMP280;45234;48.148;17.128;2023-09-07T10:53:48;100761.81;;;26.96
24740;BMP280;45234;48.148;17.128;2023-09-07T10:56:15;100760.16;;;27.00
24740;BMP280;45234;48.148;17.128;2023-09-07T10:58:42;100758.00;;;27.02
24740;BMP280;45234;48.148;17.128;2023-09-07T11:01:10;100760.09;;;27.05
24740;BMP280;45234;48.148;17.128;2023-09-07T11:03:40;100758.81;;;27.03
24740;BMP280;45234;48.148;17.128;2023-09-07T11:06:15;100760.75;;;26.97
24740;BMP280;45234;48.148;17.128;2023-09-07T11:08:49;100750.19;;;26.92
24740;BMP280;45234;48.148;17.128;2023-09-07T11:11:16;100753.44;;;26.89
24740;BMP280;45234;48.148;17.128;2023-09-07T11:13:43;100761.41;;;26.89
24740;BMP280;45234;48.148;17.128;2023-09-07T11:16:11;100754.44;;;26.93
24740;BMP280;45234;48.148;17.128;2023-09-07T11:18:38;100755.50;;;26.92
24740;BMP280;45234;48.148;17.128;2023-09-07T11:21:07;100757.47;;;26.87
24740;BMP280;45234;48.148;17.128;2023-09-07T11:23:34;100748.72;;;26.86
24740;BMP280;45234;48.148;17.128;2023-09-07T11:26:09;100744.03;;;26.78
24740;BMP280;45234;48.148;17.128;2023-09-07T11:28:38;100747.16;;;26.80
24740;BMP280;45234;48.148;17.128;2023-09-07T11:31:05;100737.56;;;26.84
24740;BMP280;45234;48.148;17.128;2023-09-07T11:33:33;100735.56;;;26.76
24740;BMP280;45234;48.148;17.128;2023-09-07T11:36:02;100742.53;;;26.72
24740;BMP280;45234;48.148;17.128;2023-09-07T11:38:36;100743.50;;;26.62
24740;BMP280;45234;48.148;17.128;2023-09-07T11:41:04;100742.41;;;26.63
24740;BMP280;45234;48.148;17.128;2023-09-07T11:43:31;100735.19;;;26.64
24740;BMP280;45234;48.148;17.128;2023-09-07T11:45:58;100743.91;;;26.69
24740;BMP280;45234;48.148;17.128;2023-09-07T11:48:25;100734.34;;;26.68
24740;BMP280;45234;48.148;17.128;2023-09-07T11:50:52;100722.63;;;26.69
24740;BMP280;45234;48.148;17.128;2023-09-07T11:53:19;100730.28;;;26.71
24740;BMP280;45234;48.148;17.128;2023-09-07T11:55:46;100730.88;;;26.68
24740;BMP280;45234;48.148;17.128;2023-09-07T11:58:13;100725.56;;;26.68
24740;BMP280;45234;48.148;17.128;2023-09-07T12:00:40;100723.41;;;26.70
24740;BMP280;45234;48.148;17.128;2023-09-07T12:03:08;100730.59;;;26.69
24740;BMP280;45234;48.148;17.128;2023-09-07T12:05:35;100728.88;;;26.60
24740;BMP280;45234;48.148;17.128;2023-09-07T12:08:05;100718.84;;;26.57
24740;BMP280;45234;48.148;17.128;2023-09-07T12:10:32;100715.66;;;26.55
24740;BMP280;45234;48.148;17.128;2023-09-07T12:13:00;100722.09;;;26.54
24740;BMP280;45234;48.148;17.128;2023-09-07T12:15:27;100702.88;;;26.57
24740;BMP280;45234;48.148;17.128;2023-09-07T12:17:54;100700.81;;;26.54
24740;BMP280;45234;48.148;17.128;2023-09-07T12:20:22;100700.31;;;26.52
24740;BMP280;45234;48.148;17.128;2023-09-07T12:22:49;100694.47;;;26.50
24740;BMP280;45234;48.148;17.128;2023-09-07T12:25:16;100687.06;;;26.47
24740;BMP280;45234;48.148;17.128;2023-09-07T12:27:45;100691.25;;;26.53
24740;BMP280;45234;48.148;17.128;2023-09-07T12:30:20;100686.34;;;26.60
24740;BMP280;45234;48.148;17.128;2023-09-07T12:32:48;100688.91;;;26.65
24740;BMP280;45234;48.148;17.128;2023-09-07T12:35:15;100693.06;;;26.71
24740;BMP280;45234;48.148;17.128;2023-09-07T12:37:43;100684.19;;;26.62
24740;BMP280;45234;48.148;17.128;2023-09-07T12:40:10;100681.53;;;26.62
24740;BMP280;45234;48.148;17.128;2023-09-07T12:42:41;100677.50;;;26.64
24740;BMP280;45234;48.148;17.128;2023-09-07T12:45:12;100680.44;;;26.63
24740;BMP280;45234;48.148;17.128;2023-09-07T12:47:41;100675.34;;;26.66
24740;BMP280;45234;48.148;17.128;2023-09-07T12:50:08;100679.28;;;26.69
24740;BMP280;45234;48.148;17.128;2023-09-07T12:52:35;100673.38;;;26.72
24740;BMP280;45234;48.148;17.128;2023-09-07T12:55:06;100667.56;;;26.70
24740;BMP280;45234;48.148;17.128;2023-09-07T12:57:33;100667.47;;;26.75
24740;BMP280;45234;48.148;17.128;2023-09-07T13:00:02;100663.16;;;26.79
24740;BMP280;45234;48.148;17.128;2023-09-07T13:02:30;100655.16;;;26.79
24740;BMP280;45234;48.148;17.128;2023-09-07T13:04:57;100662.34;;;26.79
24740;BMP280;45234;48.148;17.128;2023-09-07T13:07:24;100664.69;;;26.80
24740;BMP280;45234;48.148;17.128;2023-09-07T13:09:51;100659.59;;;26.84
24740;BMP280;45234;48.148;17.128;2023-09-07T13:12:18;100658.84;;;26.83
24740;BMP280;45234;48.148;17.128;2023-09-07T13:14:45;100648.38;;;26.87
24740;BMP280;45234;48.148;17.128;2023-09-07T13:17:14;100654.47;;;26.87
24740;BMP280;45234;48.148;17.128;2023-09-07T13:19:42;100660.22;;;26.94
24740;BMP280;45234;48.148;17.128;2023-09-07T13:22:09;100655.09;;;26.98
24740;BMP280;45234;48.148;17.128;2023-09-07T13:24:36;100655.09;;;26.98
24740;BMP280;45234;48.148;17.128;2023-09-07T13:27:04;100656.19;;;26.97
24740;BMP280;45234;48.148;17.128;2023-09-07T13:29:34;100655.22;;;26.93
24740;BMP280;45234;48.148;17.128;2023-09-07T13:32:04;100653.84;;;26.95
24740;BMP280;45234;48.148;17.128;2023-09-07T13:34:33;100657.66;;;26.89
24740;BMP280;45234;48.148;17.128;2023-09-07T13:37:00;100650.16;;;26.91
24740;BMP280;45234;48.148;17.128;2023-09-07T13:39:27;100648.00;;;26.93
24740;BMP280;45234;48.148;17.128;2023-09-07T13:41:54;100648.97;;;26.97
24740;BMP280;45234;48.148;17.128;2023-09-07T13:44:21;100657.06;;;27.06
24740;BMP280;45234;48.148;17.128;2023-09-07T13:46:48;100653.81;;;27.09
24740;BMP280;45234;48.148;17.128;2023-09-07T13:49:17;100661.75;;;27.14
24740;BMP280;45234;48.148;17.128;2023-09-07T13:51:44;100655.22;;;27.20